createdAt,value
2018-05-07T00:07:56.570Z,98.54
2018-05-07T00:17:46.397Z,98.28
2018-05-07T00:27:35.293Z,98.75
2018-05-07T00:37:24.435Z,98.28
2018-05-07T00:47:11.167Z,97.47
2018-05-07T00:57:01.940Z,95.84
2018-05-07T01:06:51.675Z,97.77
2018-05-07T01:16:38.376Z,97.97
2018-05-07T01:26:24.633Z,98.79
2018-05-07T01:36:13.850Z,99.29
2018-05-07T01:46:05.095Z,98.27
2018-05-07T01:56:00.620Z,97.61
2018-05-07T02:05:46.697Z,98.43
2018-05-07T02:15:36.694Z,98.43
2018-05-07T02:25:27.158Z,99.04
2018-05-07T02:35:16.659Z,97.81
2018-05-07T02:45:05.228Z,98.22
2018-05-07T02:54:55.154Z,96.89
2018-05-07T03:04:48.490Z,98.22
2018-05-07T03:14:36.137Z,98.93
2018-05-07T03:24:24.874Z,97.71
2018-05-07T03:34:11.259Z,98.32
2018-05-07T03:44:02.204Z,99.34
2018-05-07T03:53:51.730Z,97.61
2018-05-07T04:03:37.240Z,99.14
2018-05-07T04:13:26.541Z,99.39
2018-05-07T04:23:24.471Z,99.75
2018-05-07T04:33:21.199Z,98.48
2018-05-07T04:43:18.092Z,96.25
2018-05-07T04:53:14.728Z,94.12
2018-05-07T05:03:09.138Z,93.59
2018-05-07T05:13:03.180Z,90.86
2018-05-07T05:23:02.816Z,94.12
2018-05-07T05:32:56.916Z,93.12
2018-05-07T05:42:53.782Z,86.25
2018-05-07T05:52:52.599Z,89.24
2018-05-07T06:02:49.597Z,90.37
2018-05-07T06:12:45.272Z,88.41
2018-05-07T06:22:43.960Z,83.74
2018-05-07T06:32:39.850Z,76.61
2018-05-07T06:42:37.056Z,80.60
2018-05-07T06:52:34.844Z,80.90
2018-05-07T07:02:32.185Z,73.48
2018-05-07T07:12:26.825Z,74.35
2018-05-07T07:22:22.269Z,71.70
2018-05-07T07:32:19.563Z,71.94
2018-05-07T07:42:16.439Z,72.27
2018-05-07T07:52:11.185Z,67.75
2018-05-07T08:02:09.025Z,70.36
2018-05-07T08:12:07.602Z,68.39
2018-05-07T08:22:04.654Z,66.85
2018-05-07T08:32:01.901Z,66.99
2018-05-07T08:42:00.470Z,64.42
2018-05-07T08:51:39.952Z,66.47
2018-05-07T09:01:17.454Z,63.42
2018-05-07T09:10:58.313Z,67.11
2018-05-07T09:20:27.848Z,62.86
2018-05-07T09:30:06.000Z,60.86
2018-05-07T09:39:43.255Z,61.44
2018-05-07T09:49:20.871Z,64.34
2018-05-07T09:58:58.543Z,62.04
2018-05-07T10:08:36.288Z,62.55
2018-05-07T10:18:14.186Z,61.98
2018-05-07T10:27:51.807Z,61.58
2018-05-07T10:37:29.805Z,67.49
2018-05-07T10:47:08.034Z,61.83
2018-05-07T10:56:46.089Z,60.11
2018-05-07T11:06:24.321Z,59.75
2018-05-07T11:16:01.964Z,58.98
2018-05-07T11:25:39.466Z,55.63
2018-05-07T11:35:17.701Z,53.28
2018-05-07T11:44:55.290Z,52.19
2018-05-07T11:54:33.275Z,51.60
2018-05-07T12:04:11.483Z,57.67
2018-05-07T12:13:47.549Z,50.95
2018-05-07T12:23:24.832Z,57.60
2018-05-07T12:33:06.772Z,51.82
2018-05-07T12:42:36.576Z,51.07
2018-05-07T12:52:15.356Z,49.82
2018-05-07T13:01:53.722Z,48.75
2018-05-07T13:11:31.545Z,48.75
2018-05-07T13:21:09.442Z,47.91
2018-05-07T13:30:48.581Z,46.37
2018-05-07T13:40:26.811Z,48.32
2018-05-07T13:50:06.281Z,46.55
2018-05-07T13:59:43.810Z,50.81
2018-05-07T14:09:22.765Z,45.71
2018-05-07T14:19:02.202Z,45.29
2018-05-07T14:28:40.478Z,46.01
2018-05-07T14:38:17.250Z,46.26
2018-05-07T14:47:56.060Z,45.72
2018-05-07T14:57:38.798Z,45.75
2018-05-07T15:07:07.684Z,49.10
2018-05-07T15:16:48.351Z,49.13
2018-05-07T15:26:18.664Z,48.63
2018-05-07T15:35:54.277Z,49.87
2018-05-07T15:45:28.581Z,59.74
2018-05-07T15:54:57.010Z,57.36
2018-05-07T16:04:29.865Z,59.23
2018-05-07T16:14:05.189Z,62.31
2018-05-07T16:23:41.516Z,60.55
2018-05-07T16:33:17.661Z,66.73
2018-05-07T16:43:13.125Z,66.97
2018-05-07T16:52:48.455Z,65.63
2018-05-07T17:02:28.985Z,67.59
2018-05-07T17:12:24.707Z,67.57
2018-05-07T17:22:16.443Z,67.43
2018-05-07T17:32:08.260Z,67.77
2018-05-07T17:42:05.441Z,69.59
2018-05-07T17:51:58.352Z,72.78
2018-05-07T18:01:48.751Z,74.05
2018-05-07T18:11:40.605Z,78.39
2018-05-07T18:21:38.379Z,75.19
2018-05-07T18:32:39.733Z,76.13
2018-05-07T18:43:41.659Z,76.73
2018-05-07T18:54:43.483Z,73.39
2018-05-07T19:05:45.085Z,76.23
2018-05-07T19:16:46.453Z,75.50
2018-05-07T19:27:45.649Z,77.40
2018-05-07T19:38:47.232Z,78.14
2018-05-07T19:49:46.460Z,81.62
2018-05-07T20:00:47.433Z,83.47
2018-05-07T20:11:41.094Z,85.08
2018-05-07T20:22:41.082Z,83.97
2018-05-07T20:33:39.080Z,83.97
2018-05-07T20:44:36.404Z,82.40
2018-05-07T20:55:31.653Z,84.25
2018-05-07T21:06:27.107Z,84.45
2018-05-07T21:17:25.248Z,85.25
2018-05-07T21:28:19.075Z,88.65
2018-05-07T21:39:19.543Z,87.69
2018-05-07T21:50:11.761Z,87.73
2018-05-07T22:01:08.998Z,89.63
2018-05-07T22:12:05.094Z,91.08
2018-05-07T22:22:59.961Z,91.63
2018-05-07T22:33:59.493Z,90.78
2018-05-07T22:44:59.235Z,90.32
2018-05-07T22:55:58.147Z,92.83
2018-05-07T23:06:58.908Z,91.37
2018-05-07T23:17:55.853Z,92.32
2018-05-07T23:28:55.472Z,92.61
2018-05-07T23:39:53.890Z,91.69
2018-05-07T23:50:51.846Z,93.24
